createdAt,value
2024-01-22T00:01:45.372Z,100.00
2024-01-22T00:04:12.287Z,100.00
2024-01-22T00:06:40.882Z,100.00
2024-01-22T00:09:08.166Z,100.00
2024-01-22T00:11:35.354Z,100.00
2024-01-22T00:14:02.169Z,100.00
2024-01-22T00:16:28.848Z,100.00
2024-01-22T00:18:55.878Z,100.00
2024-01-22T00:21:22.562Z,100.00
2024-01-22T00:23:49.487Z,100.00
2024-01-22T00:26:16.288Z,100.00
2024-01-22T00:28:43.289Z,100.00
2024-01-22T00:31:10.393Z,100.00
2024-01-22T00:33:37.332Z,100.00
2024-01-22T00:36:04.693Z,100.00
2024-01-22T00:38:31.636Z,100.00
2024-01-22T00:40:58.645Z,100.00
2024-01-22T00:43:25.589Z,100.00
2024-01-22T00:45:52.408Z,100.00
2024-01-22T00:48:19.560Z,100.00
2024-01-22T00:50:46.633Z,100.00
2024-01-22T00:53:14.437Z,100.00
2024-01-22T00:55:41.179Z,100.00
2024-01-22T00:58:08.143Z,100.00
2024-01-22T01:00:34.981Z,100.00
2024-01-22T01:03:02.058Z,100.00
2024-01-22T01:05:28.856Z,100.00
2024-01-22T01:07:55.912Z,100.00
2024-01-22T01:10:22.668Z,100.00
2024-01-22T01:12:49.560Z,100.00
2024-01-22T01:15:18.100Z,100.00
2024-01-22T01:17:45.135Z,100.00
2024-01-22T01:20:12.280Z,100.00
2024-01-22T01:22:39.034Z,100.00
2024-01-22T01:25:05.907Z,100.00
2024-01-22T01:27:32.658Z,100.00
2024-01-22T01:29:59.534Z,100.00
2024-01-22T01:32:27.761Z,100.00
2024-01-22T01:34:54.879Z,100.00
2024-01-22T01:37:21.500Z,100.00
2024-01-22T01:39:48.451Z,100.00
2024-01-22T01:42:15.248Z,100.00
2024-01-22T01:44:41.936Z,100.00
2024-01-22T01:47:09.129Z,100.00
2024-01-22T01:49:35.827Z,100.00
2024-01-22T01:52:02.667Z,100.00
2024-01-22T01:54:30.629Z,100.00
2024-01-22T01:56:57.721Z,100.00
2024-01-22T01:59:25.054Z,100.00
2024-01-22T02:01:51.759Z,100.00
2024-01-22T02:04:18.906Z,100.00
2024-01-22T02:06:46.356Z,100.00
2024-01-22T02:09:13.296Z,100.00
2024-01-22T02:11:40.078Z,100.00
2024-01-22T02:14:07.021Z,100.00
2024-01-22T02:16:33.711Z,100.00
2024-01-22T02:19:00.584Z,100.00
2024-01-22T02:21:27.424Z,100.00
2024-01-22T02:23:54.405Z,100.00
2024-01-22T02:26:21.196Z,100.00
2024-01-22T02:28:48.063Z,100.00
2024-01-22T02:31:14.793Z,100.00
2024-01-22T02:33:42.468Z,100.00
2024-01-22T02:36:09.371Z,100.00
2024-01-22T02:38:36.427Z,100.00
2024-01-22T02:41:03.415Z,100.00
2024-01-22T02:43:30.067Z,100.00
2024-01-22T02:45:56.751Z,100.00
2024-01-22T02:48:23.723Z,100.00
2024-01-22T02:50:51.118Z,100.00
2024-01-22T02:53:17.963Z,100.00
2024-01-22T02:55:44.963Z,100.00
2024-01-22T02:58:12.520Z,100.00
2024-01-22T03:00:39.744Z,100.00
2024-01-22T03:03:06.963Z,100.00
2024-01-22T03:05:33.905Z,100.00
2024-01-22T03:08:01.248Z,100.00
2024-01-22T03:10:28.296Z,100.00
2024-01-22T03:12:55.022Z,100.00
2024-01-22T03:15:21.936Z,100.00
2024-01-22T03:17:48.768Z,100.00
2024-01-22T03:20:15.815Z,100.00
2024-01-22T03:22:42.600Z,100.00
2024-01-22T03:25:09.602Z,100.00
2024-01-22T03:27:36.310Z,100.00
2024-01-22T03:30:03.574Z,100.00
2024-01-22T03:32:30.478Z,100.00
2024-01-22T03:34:57.338Z,100.00
2024-01-22T03:37:24.193Z,100.00
2024-01-22T03:39:51.347Z,100.00
2024-01-22T03:42:18.841Z,100.00
2024-01-22T03:44:45.799Z,100.00
2024-01-22T03:47:12.641Z,100.00
2024-01-22T03:49:39.561Z,100.00
2024-01-22T03:52:07.200Z,100.00
2024-01-22T03:54:33.796Z,100.00
2024-01-22T03:57:07.710Z,100.00
2024-01-22T03:59:35.645Z,100.00
2024-01-22T04:02:02.519Z,100.00
2024-01-22T04:04:29.522Z,100.00
2024-01-22T04:06:56.997Z,100.00
2024-01-22T04:09:23.985Z,100.00
2024-01-22T04:11:51.061Z,100.00
2024-01-22T04:14:17.731Z,100.00
2024-01-22T04:16:45.785Z,100.00
2024-01-22T04:19:12.696Z,100.00
2024-01-22T04:21:49.084Z,100.00
2024-01-22T04:24:15.846Z,100.00
2024-01-22T04:26:42.774Z,100.00
2024-01-22T04:29:09.424Z,100.00
2024-01-22T04:31:40.164Z,100.00
2024-01-22T04:34:07.115Z,100.00
2024-01-22T04:36:33.884Z,100.00
2024-01-22T04:39:00.779Z,100.00
2024-01-22T04:41:27.388Z,100.00
2024-01-22T04:43:54.096Z,100.00
2024-01-22T04:46:21.101Z,100.00
2024-01-22T04:48:48.647Z,100.00
2024-01-22T04:51:15.582Z,100.00
2024-01-22T04:53:42.539Z,100.00
2024-01-22T04:56:09.150Z,100.00
2024-01-22T04:58:35.773Z,100.00
2024-01-22T05:01:02.604Z,100.00
2024-01-22T05:03:29.672Z,100.00
2024-01-22T05:05:56.681Z,100.00
2024-01-22T05:08:23.822Z,100.00
2024-01-22T05:10:51.576Z,100.00
2024-01-22T05:13:18.193Z,100.00
2024-01-22T05:15:44.971Z,100.00
2024-01-22T05:18:11.900Z,100.00
2024-01-22T05:20:38.960Z,100.00
2024-01-22T05:23:05.523Z,100.00
2024-01-22T05:25:33.215Z,100.00
2024-01-22T05:27:59.974Z,100.00
2024-01-22T05:30:26.997Z,100.00
2024-01-22T05:32:53.879Z,100.00
2024-01-22T05:35:20.827Z,100.00
2024-01-22T05:37:50.315Z,100.00
2024-01-22T05:40:18.075Z,100.00
2024-01-22T05:42:47.261Z,100.00
2024-01-22T05:45:14.416Z,100.00
2024-01-22T05:47:41.539Z,100.00
2024-01-22T05:50:10.075Z,100.00
2024-01-22T05:52:36.821Z,100.00
2024-01-22T05:55:03.860Z,100.00
2024-01-22T05:57:30.769Z,100.00
2024-01-22T05:59:57.386Z,100.00
2024-01-22T06:02:24.508Z,100.00
2024-01-22T06:04:51.091Z,100.00
2024-01-22T06:07:18.669Z,100.00
2024-01-22T06:09:52.434Z,100.00
2024-01-22T06:12:22.240Z,100.00
2024-01-22T06:14:49.235Z,100.00
2024-01-22T06:17:15.882Z,100.00
2024-01-22T06:19:43.051Z,100.00
2024-01-22T06:22:10.973Z,100.00
2024-01-22T06:24:39.241Z,100.00
2024-01-22T06:27:06.589Z,100.00
2024-01-22T06:29:34.487Z,100.00
2024-01-22T06:32:01.370Z,100.00
2024-01-22T06:34:28.290Z,100.00
2024-01-22T06:36:55.107Z,100.00
2024-01-22T06:39:21.803Z,100.00
2024-01-22T06:41:48.806Z,100.00
2024-01-22T06:44:16.628Z,100.00
2024-01-22T06:46:43.458Z,100.00
2024-01-22T06:49:11.486Z,100.00
2024-01-22T06:51:45.694Z,100.00
2024-01-22T06:54:14.263Z,100.00
2024-01-22T06:56:41.665Z,100.00
2024-01-22T06:59:08.440Z,100.00
2024-01-22T07:01:35.144Z,100.00
2024-01-22T07:04:02.157Z,100.00
2024-01-22T07:06:28.858Z,100.00
2024-01-22T07:08:55.768Z,100.00
2024-01-22T07:11:22.709Z,100.00
2024-01-22T07:13:49.668Z,100.00
2024-01-22T07:16:16.653Z,100.00
2024-01-22T07:18:43.413Z,100.00
2024-01-22T07:21:10.497Z,100.00
2024-01-22T07:23:37.234Z,100.00
2024-01-22T07:26:04.102Z,100.00
2024-01-22T07:28:30.737Z,100.00
2024-01-22T07:30:57.597Z,100.00
2024-01-22T07:33:24.313Z,100.00
2024-01-22T07:35:51.130Z,100.00
2024-01-22T07:38:17.981Z,100.00
2024-01-22T07:40:44.701Z,100.00
2024-01-22T07:43:11.601Z,100.00
2024-01-22T07:45:38.295Z,100.00
2024-01-22T07:48:05.755Z,100.00
2024-01-22T07:50:32.611Z,100.00
2024-01-22T07:52:59.449Z,100.00
2024-01-22T07:55:26.168Z,100.00
2024-01-22T07:57:52.789Z,100.00
2024-01-22T08:00:20.477Z,100.00
2024-01-22T08:02:47.238Z,100.00
2024-01-22T08:05:15.660Z,100.00
2024-01-22T08:07:43.874Z,100.00
2024-01-22T08:10:11.148Z,100.00
2024-01-22T08:12:38.044Z,100.00
2024-01-22T08:15:05.184Z,100.00
2024-01-22T08:17:32.174Z,100.00
2024-01-22T08:19:59.217Z,100.00
2024-01-22T08:22:26.179Z,100.00
2024-01-22T08:24:52.898Z,100.00
2024-01-22T08:27:19.887Z,100.00
2024-01-22T08:29:46.516Z,100.00
2024-01-22T08:32:13.599Z,100.00
2024-01-22T08:34:40.585Z,100.00
2024-01-22T08:37:10.288Z,100.00
2024-01-22T08:39:38.032Z,100.00
2024-01-22T08:42:05.160Z,100.00
2024-01-22T08:44:32.101Z,100.00
2024-01-22T08:46:58.826Z,100.00
2024-01-22T08:49:25.450Z,93.28
2024-01-22T08:51:52.482Z,88.38
2024-01-22T08:54:19.342Z,72.98
2024-01-22T08:56:46.836Z,58.78
2024-01-22T08:59:16.465Z,54.87
2024-01-22T09:01:43.904Z,52.94
2024-01-22T09:04:10.633Z,52.51
2024-01-22T09:06:37.748Z,52.86
2024-01-22T09:09:06.582Z,52.18
2024-01-22T09:11:33.688Z,53.18
2024-01-22T09:14:00.435Z,53.38
2024-01-22T09:16:28.616Z,54.72
2024-01-22T09:18:55.605Z,58.01
2024-01-22T09:21:22.494Z,57.87
2024-01-22T09:23:49.280Z,58.52
2024-01-22T09:26:15.929Z,60.02
2024-01-22T09:28:42.515Z,61.63
2024-01-22T09:31:09.164Z,60.64
2024-01-22T09:33:36.072Z,62.38
2024-01-22T09:36:04.878Z,60.62
2024-01-22T09:38:31.899Z,61.79
2024-01-22T09:40:59.294Z,64.69
2024-01-22T09:43:25.993Z,60.84
2024-01-22T09:45:53.627Z,60.39
2024-01-22T09:48:20.471Z,61.88
2024-01-22T09:50:51.127Z,60.07
2024-01-22T09:53:18.591Z,60.10
2024-01-22T09:55:46.034Z,57.80
2024-01-22T09:58:19.633Z,54.18
2024-01-22T10:00:48.305Z,52.82
2024-01-22T10:03:16.051Z,52.37
2024-01-22T10:05:43.077Z,52.58
2024-01-22T10:08:09.998Z,51.57
2024-01-22T10:10:38.677Z,52.08
2024-01-22T10:13:08.830Z,51.88
2024-01-22T10:15:36.972Z,52.39
2024-01-22T10:18:14.396Z,52.06
2024-01-22T10:20:42.858Z,52.17
2024-01-22T10:23:10.627Z,51.65
2024-01-22T10:25:37.970Z,51.73
2024-01-22T10:28:21.444Z,52.11
2024-01-22T10:31:03.898Z,52.45
2024-01-22T10:33:31.043Z,52.79
2024-01-22T10:36:13.481Z,52.66
2024-01-22T10:38:40.336Z,52.59
2024-01-22T10:41:20.039Z,53.06
2024-01-22T10:43:48.393Z,52.84
2024-01-22T10:46:16.456Z,51.61
2024-01-22T10:48:47.111Z,51.79
2024-01-22T10:51:16.533Z,52.35
2024-01-22T10:53:44.704Z,51.31
2024-01-22T10:56:18.666Z,51.63
2024-01-22T10:58:48.732Z,50.81
2024-01-22T11:01:21.491Z,50.90
2024-01-22T11:03:51.845Z,50.98
2024-01-22T11:06:25.658Z,50.40
2024-01-22T11:08:58.483Z,48.65
2024-01-22T11:11:27.937Z,48.03
2024-01-22T11:14:03.831Z,47.75
2024-01-22T11:16:31.468Z,47.67
2024-01-22T11:19:02.246Z,46.82
2024-01-22T11:21:39.788Z,45.93
2024-01-22T11:24:26.632Z,46.38
2024-01-22T11:26:54.183Z,46.31
2024-01-22T11:29:32.469Z,46.15
2024-01-22T11:32:26.273Z,46.28
2024-01-22T11:34:58.413Z,45.34
2024-01-22T11:37:38.788Z,45.23
2024-01-22T11:40:13.672Z,45.55
2024-01-22T11:42:40.975Z,45.85
2024-01-22T11:45:13.968Z,46.45
2024-01-22T11:47:42.618Z,45.95
2024-01-22T11:50:09.997Z,45.97
2024-01-22T11:52:38.352Z,46.07
2024-01-22T11:55:09.823Z,45.75
2024-01-22T11:57:39.211Z,46.19
2024-01-22T12:00:13.167Z,45.99
2024-01-22T12:02:41.616Z,46.31
2024-01-22T12:05:11.412Z,46.12
2024-01-22T12:07:46.741Z,46.05
2024-01-22T12:10:24.282Z,46.99
2024-01-22T12:12:59.675Z,47.03
2024-01-22T12:15:28.664Z,48.17
2024-01-22T12:17:56.125Z,48.21
2024-01-22T12:20:24.019Z,48.01
2024-01-22T12:23:02.408Z,46.78
2024-01-22T12:25:41.909Z,47.37
2024-01-22T12:28:14.820Z,47.05
2024-01-22T12:30:44.007Z,47.13
2024-01-22T12:33:22.510Z,47.27
2024-01-22T12:35:50.150Z,46.51
2024-01-22T12:38:18.076Z,47.00
2024-01-22T12:40:45.631Z,46.32
2024-01-22T12:43:12.667Z,45.84
2024-01-22T12:45:39.511Z,44.71
2024-01-22T12:48:06.893Z,45.86
2024-01-22T12:50:34.141Z,45.47
2024-01-22T12:53:01.494Z,45.60
2024-01-22T12:55:28.236Z,46.06
2024-01-22T12:57:55.042Z,45.66
2024-01-22T13:00:22.522Z,46.23
2024-01-22T13:02:50.351Z,46.52
2024-01-22T13:05:17.881Z,46.14
2024-01-22T13:07:44.530Z,46.13
2024-01-22T13:10:11.155Z,45.33
2024-01-22T13:12:38.103Z,45.47
2024-01-22T13:15:05.633Z,45.20
2024-01-22T13:17:32.964Z,45.66
2024-01-22T13:20:00.237Z,45.37
2024-01-22T13:22:27.047Z,45.40
2024-01-22T13:24:54.228Z,45.13
2024-01-22T13:27:21.032Z,45.18
2024-01-22T13:29:47.913Z,45.35
2024-01-22T13:32:15.034Z,45.65
2024-01-22T13:34:42.038Z,46.29
2024-01-22T13:37:09.045Z,47.00
2024-01-22T13:39:39.988Z,47.28
2024-01-22T13:42:09.870Z,47.97
2024-01-22T13:44:36.872Z,48.35
2024-01-22T13:47:05.742Z,47.11
2024-01-22T13:49:35.819Z,46.16
2024-01-22T13:52:06.882Z,46.58
2024-01-22T13:54:34.834Z,46.23
2024-01-22T13:57:02.080Z,45.13
2024-01-22T13:59:29.047Z,45.71
2024-01-22T14:01:59.360Z,46.61
2024-01-22T14:04:26.261Z,46.58
2024-01-22T14:06:53.220Z,47.27
2024-01-22T14:09:20.272Z,47.63
2024-01-22T14:11:47.185Z,48.46
2024-01-22T14:14:16.621Z,49.11
2024-01-22T14:16:45.897Z,49.64
2024-01-22T14:19:13.056Z,50.81
2024-01-22T14:21:40.558Z,51.29
2024-01-22T14:24:08.740Z,51.15
2024-01-22T14:26:36.196Z,51.78
2024-01-22T14:29:04.606Z,51.90
2024-01-22T14:31:31.674Z,53.21
2024-01-22T14:33:59.217Z,54.16
2024-01-22T14:36:26.058Z,55.14
2024-01-22T14:38:53.478Z,57.24
2024-01-22T14:41:20.874Z,60.09
2024-01-22T14:43:49.036Z,62.51
2024-01-22T14:46:18.157Z,62.74
2024-01-22T14:48:45.118Z,65.63
2024-01-22T14:51:12.582Z,67.55
2024-01-22T14:53:39.148Z,69.16
2024-01-22T14:56:08.084Z,72.52
2024-01-22T14:58:35.605Z,73.26
2024-01-22T15:01:02.576Z,76.29
2024-01-22T15:03:29.530Z,77.70
2024-01-22T15:05:56.955Z,79.95
2024-01-22T15:08:23.749Z,81.33
2024-01-22T15:10:50.494Z,87.41
2024-01-22T15:13:17.228Z,92.74
2024-01-22T15:15:43.919Z,100.00
2024-01-22T15:18:11.172Z,100.00
2024-01-22T15:20:37.992Z,100.00
2024-01-22T15:23:05.077Z,100.00
2024-01-22T15:25:31.763Z,100.00
2024-01-22T15:27:58.512Z,100.00
2024-01-22T15:30:26.711Z,100.00
2024-01-22T15:32:55.263Z,100.00
2024-01-22T15:35:22.970Z,100.00
2024-01-22T15:37:50.474Z,100.00
2024-01-22T15:40:17.376Z,100.00
2024-01-22T15:42:44.085Z,100.00
2024-01-22T15:45:10.838Z,100.00
2024-01-22T15:47:38.012Z,100.00
2024-01-22T15:50:06.340Z,100.00
2024-01-22T15:52:33.336Z,100.00
2024-01-22T15:54:59.922Z,100.00
2024-01-22T15:57:26.777Z,100.00
2024-01-22T15:59:53.563Z,100.00
2024-01-22T16:02:20.351Z,100.00
2024-01-22T16:04:47.059Z,100.00
2024-01-22T16:07:14.851Z,100.00
2024-01-22T16:09:44.187Z,100.00
2024-01-22T16:12:14.688Z,100.00
2024-01-22T16:14:41.411Z,100.00
2024-01-22T16:17:08.291Z,100.00
2024-01-22T16:19:36.280Z,100.00
2024-01-22T16:22:06.444Z,100.00
2024-01-22T16:24:33.662Z,100.00
2024-01-22T16:27:00.626Z,100.00
2024-01-22T16:29:29.051Z,100.00
2024-01-22T16:31:56.437Z,100.00
2024-01-22T16:34:23.418Z,100.00
2024-01-22T16:36:50.389Z,100.00
2024-01-22T16:39:17.251Z,100.00
2024-01-22T16:41:44.560Z,100.00
2024-01-22T16:44:11.297Z,100.00
2024-01-22T16:46:42.770Z,100.00
2024-01-22T16:49:11.615Z,100.00
2024-01-22T16:51:38.798Z,100.00
2024-01-22T16:54:05.726Z,100.00
2024-01-22T16:56:32.510Z,100.00
2024-01-22T16:59:01.828Z,100.00
2024-01-22T17:01:30.732Z,100.00
2024-01-22T17:03:57.828Z,100.00
2024-01-22T17:06:25.290Z,100.00
2024-01-22T17:08:53.014Z,100.00
2024-01-22T17:11:23.769Z,100.00
2024-01-22T17:13:51.219Z,100.00
2024-01-22T17:16:18.477Z,100.00
2024-01-22T17:18:45.489Z,100.00
2024-01-22T17:21:12.358Z,100.00
2024-01-22T17:23:39.548Z,100.00
2024-01-22T17:26:11.405Z,100.00
2024-01-22T17:28:38.948Z,100.00
2024-01-22T17:31:05.801Z,100.00
2024-01-22T17:33:33.427Z,100.00
2024-01-22T17:36:00.540Z,100.00
2024-01-22T17:38:27.650Z,100.00
2024-01-22T17:40:55.775Z,100.00
2024-01-22T17:43:22.918Z,100.00
2024-01-22T17:45:49.788Z,100.00
2024-01-22T17:48:18.117Z,100.00
2024-01-22T17:50:44.937Z,100.00
2024-01-22T17:53:11.670Z,100.00
2024-01-22T17:55:38.276Z,100.00
2024-01-22T17:58:05.151Z,100.00
2024-01-22T18:00:31.956Z,100.00
2024-01-22T18:02:58.984Z,100.00
2024-01-22T18:05:25.781Z,100.00
2024-01-22T18:07:52.365Z,100.00
2024-01-22T18:10:19.198Z,100.00
2024-01-22T18:12:46.213Z,100.00
2024-01-22T18:15:13.187Z,100.00
2024-01-22T18:17:39.898Z,100.00
2024-01-22T18:20:07.011Z,100.00
2024-01-22T18:22:35.812Z,100.00
2024-01-22T18:25:02.709Z,100.00
2024-01-22T18:27:29.512Z,100.00
2024-01-22T18:29:56.456Z,100.00
2024-01-22T18:32:23.783Z,100.00
2024-01-22T18:34:50.615Z,100.00
2024-01-22T18:37:20.917Z,100.00
2024-01-22T18:39:47.791Z,100.00
2024-01-22T18:42:14.873Z,100.00
2024-01-22T18:44:41.947Z,100.00
2024-01-22T18:47:09.591Z,100.00
2024-01-22T18:49:37.828Z,100.00
2024-01-22T18:52:05.665Z,100.00
2024-01-22T18:54:32.530Z,100.00
2024-01-22T18:56:59.268Z,100.00
2024-01-22T18:59:26.124Z,100.00
2024-01-22T19:01:52.926Z,100.00
2024-01-22T19:04:20.317Z,100.00
2024-01-22T19:06:47.182Z,100.00
2024-01-22T19:09:14.785Z,100.00
2024-01-22T19:11:42.035Z,100.00
2024-01-22T19:14:09.019Z,100.00
2024-01-22T19:16:36.677Z,100.00
2024-01-22T19:19:06.497Z,100.00
2024-01-22T19:21:33.437Z,100.00
2024-01-22T19:24:00.686Z,100.00
2024-01-22T19:26:29.130Z,100.00
2024-01-22T19:28:56.041Z,100.00
2024-01-22T19:31:22.822Z,100.00
2024-01-22T19:33:49.461Z,100.00
2024-01-22T19:36:16.603Z,100.00
2024-01-22T19:38:43.316Z,100.00
2024-01-22T19:41:11.154Z,100.00
2024-01-22T19:43:37.947Z,100.00
2024-01-22T19:46:04.668Z,100.00
2024-01-22T19:48:32.862Z,100.00
2024-01-22T19:50:59.877Z,100.00
2024-01-22T19:53:26.537Z,100.00
2024-01-22T19:55:53.250Z,100.00
2024-01-22T19:58:20.122Z,100.00
2024-01-22T20:00:46.997Z,100.00
2024-01-22T20:03:16.039Z,100.00
2024-01-22T20:05:43.083Z,100.00
2024-01-22T20:08:09.764Z,100.00
2024-01-22T20:10:37.099Z,100.00
2024-01-22T20:13:04.160Z,100.00
2024-01-22T20:15:30.935Z,100.00
2024-01-22T20:17:57.892Z,100.00
2024-01-22T20:20:24.698Z,100.00
2024-01-22T20:22:52.515Z,100.00
2024-01-22T20:25:19.338Z,100.00
2024-01-22T20:27:46.051Z,100.00
2024-01-22T20:30:13.168Z,100.00
2024-01-22T20:32:39.938Z,100.00
2024-01-22T20:35:07.726Z,100.00
2024-01-22T20:37:34.916Z,100.00
2024-01-22T20:40:01.766Z,100.00
2024-01-22T20:42:28.835Z,100.00
2024-01-22T20:44:57.763Z,100.00
2024-01-22T20:47:24.707Z,100.00
2024-01-22T20:49:51.519Z,100.00
2024-01-22T20:52:19.458Z,100.00
2024-01-22T20:54:46.061Z,100.00
2024-01-22T20:57:15.112Z,100.00
2024-01-22T20:59:42.974Z,100.00
2024-01-22T21:02:09.812Z,100.00
2024-01-22T21:04:37.033Z,100.00
2024-01-22T21:07:04.534Z,100.00
2024-01-22T21:09:31.868Z,100.00
2024-01-22T21:11:58.895Z,100.00
2024-01-22T21:14:29.487Z,100.00
2024-01-22T21:16:56.542Z,100.00
2024-01-22T21:19:23.641Z,100.00
2024-01-22T21:21:50.809Z,100.00
2024-01-22T21:24:17.646Z,100.00
2024-01-22T21:26:47.545Z,100.00
2024-01-22T21:29:14.945Z,100.00
2024-01-22T21:31:41.868Z,100.00
2024-01-22T21:34:10.282Z,100.00
2024-01-22T21:36:38.908Z,100.00
2024-01-22T21:39:05.786Z,100.00
2024-01-22T21:41:32.378Z,100.00
2024-01-22T21:43:59.347Z,100.00
2024-01-22T21:46:25.968Z,100.00
2024-01-22T21:48:52.799Z,100.00
2024-01-22T21:51:19.629Z,100.00
2024-01-22T21:53:46.377Z,100.00
2024-01-22T21:56:14.589Z,100.00
2024-01-22T21:58:41.541Z,100.00
2024-01-22T22:01:09.347Z,100.00
2024-01-22T22:03:37.282Z,100.00
2024-01-22T22:06:06.288Z,100.00
2024-01-22T22:08:35.504Z,100.00
2024-01-22T22:11:03.653Z,100.00
2024-01-22T22:13:30.651Z,100.00
2024-01-22T22:15:57.648Z,100.00
2024-01-22T22:18:24.894Z,100.00
2024-01-22T22:20:52.136Z,100.00
2024-01-22T22:23:19.908Z,100.00
2024-01-22T22:25:46.491Z,100.00
2024-01-22T22:28:13.346Z,100.00
2024-01-22T22:30:40.015Z,100.00
2024-01-22T22:33:07.026Z,100.00
2024-01-22T22:35:34.030Z,100.00
2024-01-22T22:38:00.612Z,100.00
2024-01-22T22:40:27.339Z,100.00
2024-01-22T22:42:54.312Z,100.00
2024-01-22T22:45:21.069Z,100.00
2024-01-22T22:47:48.122Z,100.00
2024-01-22T22:50:15.065Z,100.00
2024-01-22T22:52:41.673Z,100.00
2024-01-22T22:55:08.707Z,100.00
2024-01-22T22:57:35.957Z,100.00
2024-01-22T23:00:05.092Z,100.00
2024-01-22T23:02:32.860Z,100.00
2024-01-22T23:04:59.891Z,100.00
2024-01-22T23:07:26.915Z,100.00
2024-01-22T23:09:53.706Z,100.00
2024-01-22T23:12:20.661Z,100.00
2024-01-22T23:14:47.633Z,100.00
2024-01-22T23:17:14.798Z,100.00
2024-01-22T23:19:42.285Z,100.00
2024-01-22T23:22:08.900Z,100.00
2024-01-22T23:24:35.897Z,100.00
2024-01-22T23:27:03.042Z,100.00
2024-01-22T23:29:30.292Z,100.00
2024-01-22T23:31:57.209Z,100.00
2024-01-22T23:34:24.513Z,100.00
2024-01-22T23:36:51.798Z,100.00
2024-01-22T23:39:19.168Z,100.00
2024-01-22T23:41:45.854Z,100.00
2024-01-22T23:44:12.769Z,100.00
2024-01-22T23:46:39.471Z,100.00
2024-01-22T23:49:06.155Z,100.00
2024-01-22T23:51:33.260Z,100.00
2024-01-22T23:54:00.045Z,100.00
2024-01-22T23:56:26.938Z,100.00
2024-01-22T23:58:54.801Z,100.00
